Time;durP1;ratioP1;P1;durP2;ratioP2;P2;SDS_P1;SDS_P2;PMS_P1;PMS_P2;Temp;Humidity;BMP_temperature;BMP_pressure;BME280_temperature;BME280_humidity;BME280_pressure;Samples;Min_cycle;Max_cycle;Signal;HPM_P1;HPM_P2
2021/10/18 00:01:33;;;;;;;35.42;27.13;;;10.40;99.90;;;;;;5072510;28;20064;-58
2021/10/18 00:03:59;;;;;;;34.30;26.50;;;10.30;99.90;;;;;;5075389;28;20388;-59
2021/10/18 00:06:24;;;;;;;30.55;23.38;;;10.10;99.90;;;;;;5075366;28;20098;-56
2021/10/18 00:08:50;;;;;;;34.35;26.05;;;10.20;99.90;;;;;;5057772;28;20140;-57
2021/10/18 00:11:19;;;;;;;36.13;26.75;;;10.30;99.90;;;;;;5075620;28;20025;-59
2021/10/18 00:13:45;;;;;;;35.75;26.77;;;10.30;99.90;;;;;;5073453;28;20471;-56
2021/10/18 00:16:11;;;;;;;36.45;28.10;;;10.40;99.90;;;;;;5075004;28;20117;-56
2021/10/18 00:18:37;;;;;;;44.85;33.28;;;10.40;99.90;;;;;;5075979;28;20033;-54
2021/10/18 00:21:03;;;;;;;40.95;30.05;;;10.40;99.90;;;;;;5075411;28;20105;-53
2021/10/18 00:23:28;;;;;;;42.50;32.53;;;10.50;99.90;;;;;;5024189;28;20111;-57
2021/10/18 00:25:54;;;;;;;41.70;28.77;;;10.50;99.90;;;;;;5075015;28;20373;-55
2021/10/18 00:28:21;;;;;;;39.97;31.33;;;10.50;99.90;;;;;;5052359;28;20037;-53
2021/10/18 00:30:48;;;;;;;35.17;28.10;;;10.50;99.90;;;;;;5056476;28;20037;-57
2021/10/18 00:33:15;;;;;;;35.70;27.42;;;10.40;99.90;;;;;;5074534;28;20037;-55
2021/10/18 00:35:40;;;;;;;39.72;28.02;;;10.20;99.90;;;;;;5075729;28;20486;-57
2021/10/18 00:38:06;;;;;;;35.38;24.58;;;10.20;99.90;;;;;;5074247;28;20044;-55
2021/10/18 00:40:32;;;;;;;37.55;26.10;;;10.20;99.90;;;;;;5074755;28;20039;-53
2021/10/18 00:42:58;;;;;;;34.45;26.98;;;10.20;99.90;;;;;;5073753;28;20563;-58
2021/10/18 00:45:23;;;;;;;35.28;27.02;;;10.20;99.90;;;;;;5073204;28;20091;-56
2021/10/18 00:47:49;;;;;;;37.20;28.02;;;10.10;99.90;;;;;;5073812;28;20094;-59
2021/10/18 00:50:15;;;;;;;40.15;29.95;;;10.10;99.90;;;;;;5075212;28;20074;-53
2021/10/18 00:52:42;;;;;;;37.22;28.88;;;10.00;99.90;;;;;;5074687;28;20032;-57
2021/10/18 00:55:08;;;;;;;41.13;30.48;;;9.90;99.90;;;;;;5056577;28;20047;-54
2021/10/18 00:57:37;;;;;;;39.72;30.60;;;10.00;99.90;;;;;;5072922;28;20045;-56
2021/10/18 01:00:05;;;;;;;42.90;30.92;;;9.90;99.90;;;;;;5056101;28;20540;-57
2021/10/18 01:02:31;;;;;;;42.03;30.52;;;9.90;99.90;;;;;;5074900;28;20056;-54
2021/10/18 01:04:59;;;;;;;54.45;34.65;;;9.90;99.90;;;;;;5055204;28;20467;-58
2021/10/18 01:07:26;;;;;;;47.15;32.90;;;9.90;99.90;;;;;;5070172;28;20124;-57
2021/10/18 01:09:52;;;;;;;39.28;30.95;;;9.80;99.90;;;;;;5074548;28;20028;-60
2021/10/18 01:12:18;;;;;;;44.30;31.52;;;9.80;99.90;;;;;;5074817;28;20025;-59
2021/10/18 01:14:44;;;;;;;40.58;30.38;;;9.90;99.90;;;;;;5073070;28;20542;-55
2021/10/18 01:17:09;;;;;;;41.38;30.63;;;9.90;99.90;;;;;;5055739;28;20040;-57
2021/10/18 01:19:35;;;;;;;37.80;29.15;;;9.90;99.90;;;;;;5090367;28;20051;-53
2021/10/18 01:22:02;;;;;;;39.92;30.92;;;10.00;99.90;;;;;;5074295;28;20074;-57
2021/10/18 01:24:33;;;;;;;41.35;30.95;;;10.00;99.90;;;;;;5072427;28;20051;-53
2021/10/18 01:26:59;;;;;;;35.55;28.88;;;10.00;99.90;;;;;;5074092;28;20028;-56
2021/10/18 01:29:28;;;;;;;38.25;28.60;;;10.00;99.90;;;;;;5055493;28;20074;-55
2021/10/18 01:31:54;;;;;;;41.22;28.85;;;9.90;99.90;;;;;;5074635;28;20073;-57
2021/10/18 01:34:20;;;;;;;46.30;31.73;;;9.50;99.90;;;;;;5074313;28;20118;-55
2021/10/18 01:36:47;;;;;;;39.15;31.27;;;9.10;99.90;;;;;;5073596;28;20494;-56
2021/10/18 01:39:13;;;;;;;40.75;30.85;;;9.10;99.90;;;;;;5051580;28;20059;-57
2021/10/18 01:41:39;;;;;;;41.95;30.65;;;9.00;99.90;;;;;;5073954;28;20230;-54
2021/10/18 01:44:05;;;;;;;43.05;30.35;;;9.00;99.90;;;;;;5074031;28;20056;-57
2021/10/18 01:46:31;;;;;;;40.67;30.42;;;8.80;99.90;;;;;;5071995;28;20541;-55
2021/10/18 01:48:56;;;;;;;45.30;32.33;;;8.50;99.90;;;;;;5074278;28;20051;-59
2021/10/18 01:51:22;;;;;;;39.53;27.23;;;8.10;99.90;;;;;;5073756;28;20070;-55
2021/10/18 01:53:48;;;;;;;33.60;25.10;;;7.90;99.90;;;;;;5073411;28;20028;-59
2021/10/18 01:56:14;;;;;;;37.42;24.50;;;7.70;99.90;;;;;;5073609;28;20039;-57
2021/10/18 01:58:39;;;;;;;39.00;27.95;;;7.60;99.90;;;;;;5074129;28;20079;-57
2021/10/18 02:01:05;;;;;;;36.50;26.52;;;7.60;99.90;;;;;;5071387;28;20036;-56
2021/10/18 02:03:31;;;;;;;29.58;23.45;;;8.00;99.90;;;;;;5073534;28;20058;-57
2021/10/18 02:05:57;;;;;;;29.55;22.60;;;8.20;99.90;;;;;;5073733;28;20075;-55
2021/10/18 02:08:23;;;;;;;32.90;25.67;;;8.40;99.90;;;;;;5073165;28;20480;-58
2021/10/18 02:10:49;;;;;;;32.70;25.90;;;8.50;99.90;;;;;;5073332;28;20067;-55
2021/10/18 02:13:15;;;;;;;34.78;25.98;;;8.50;99.90;;;;;;5088015;28;20139;-54
2021/10/18 02:15:40;;;;;;;39.35;29.13;;;8.60;99.90;;;;;;5072784;28;20028;-55
2021/10/18 02:18:06;;;;;;;39.83;28.88;;;8.60;99.90;;;;;;5072652;28;20463;-54
2021/10/18 02:20:32;;;;;;;38.40;28.42;;;8.50;99.90;;;;;;5074017;28;20020;-56
2021/10/18 02:22:58;;;;;;;35.90;28.10;;;8.20;99.90;;;;;;5073157;28;20388;-57
2021/10/18 02:25:24;;;;;;;36.58;27.42;;;7.90;99.90;;;;;;5072773;28;20024;-55
2021/10/18 02:27:50;;;;;;;44.85;29.95;;;7.80;99.90;;;;;;5073619;28;20032;-57
2021/10/18 02:30:15;;;;;;;36.47;28.20;;;7.70;99.90;;;;;;5073206;28;20024;-53
2021/10/18 02:32:42;;;;;;;40.45;30.15;;;7.70;99.90;;;;;;5071038;28;20044;-55
2021/10/18 02:35:09;;;;;;;38.80;28.95;;;7.80;99.90;;;;;;5054000;28;20177;-55
2021/10/18 02:37:35;;;;;;;35.72;26.60;;;7.90;99.90;;;;;;5071680;28;20045;-52
2021/10/18 02:40:01;;;;;;;35.30;25.05;;;7.70;99.90;;;;;;5072642;28;20016;-56
2021/10/18 02:42:27;;;;;;;36.97;26.02;;;7.70;99.90;;;;;;5072544;28;20050;-56
2021/10/18 02:44:53;;;;;;;36.15;25.95;;;7.60;99.90;;;;;;5072627;28;20029;-55
2021/10/18 02:47:18;;;;;;;30.75;25.20;;;8.00;99.90;;;;;;5072471;28;20025;-53
2021/10/18 02:49:44;;;;;;;33.95;25.13;;;8.40;99.90;;;;;;5070699;28;20391;-57
2021/10/18 02:52:10;;;;;;;33.15;24.40;;;8.60;99.90;;;;;;5073529;28;20099;-61
2021/10/18 02:54:36;;;;;;;30.92;22.30;;;8.80;99.90;;;;;;5054014;28;20380;-60
2021/10/18 02:57:03;;;;;;;29.27;22.08;;;9.00;99.90;;;;;;5072600;28;20563;-58
2021/10/18 02:59:29;;;;;;;26.65;22.35;;;9.00;99.90;;;;;;5054728;28;20037;-57
2021/10/18 03:01:54;;;;;;;31.20;21.52;;;9.00;99.90;;;;;;5070418;28;20090;-57
2021/10/18 03:04:20;;;;;;;31.45;23.33;;;9.10;99.90;;;;;;5072063;28;20024;-58
2021/10/18 03:06:46;;;;;;;30.33;22.80;;;9.10;99.90;;;;;;5053533;28;20496;-57
2021/10/18 03:09:12;;;;;;;33.80;23.80;;;9.30;99.90;;;;;;5088814;28;20361;-56
2021/10/18 03:11:38;;;;;;;31.67;22.48;;;9.20;99.90;;;;;;5072057;28;20046;-56
2021/10/18 03:14:04;;;;;;;32.53;24.00;;;9.20;99.90;;;;;;5071499;28;20033;-57
2021/10/18 03:16:31;;;;;;;34.33;23.25;;;9.30;99.90;;;;;;5072320;28;20036;-56
2021/10/18 03:18:57;;;;;;;25.35;20.55;;;9.30;99.90;;;;;;5072398;28;20029;-56
2021/10/18 03:21:23;;;;;;;29.38;22.23;;;9.30;99.90;;;;;;5072325;28;20032;-59
2021/10/18 03:23:49;;;;;;;27.00;20.65;;;9.30;99.90;;;;;;5072152;28;20444;-58
2021/10/18 03:26:19;;;;;;;31.17;21.30;;;9.30;99.90;;;;;;5072171;28;20481;-58
2021/10/18 03:28:45;;;;;;;33.83;22.60;;;9.30;99.90;;;;;;5071643;28;20460;-57
2021/10/18 03:31:11;;;;;;;37.53;23.13;;;9.30;99.90;;;;;;5070594;28;20254;-55
2021/10/18 03:33:39;;;;;;;31.35;23.40;;;9.30;99.90;;;;;;5019918;28;20547;-54
2021/10/18 03:36:05;;;;;;;33.45;22.80;;;9.30;99.90;;;;;;5063865;28;20393;-56
2021/10/18 03:38:32;;;;;;;29.63;21.83;;;9.40;99.90;;;;;;5072518;28;20126;-55
2021/10/18 03:40:58;;;;;;;28.30;19.67;;;9.30;99.90;;;;;;5073577;28;20040;-56
2021/10/18 03:43:24;;;;;;;31.70;22.83;;;9.30;99.90;;;;;;5074347;28;20090;-54
2021/10/18 03:45:49;;;;;;;31.05;21.98;;;9.30;99.90;;;;;;5072596;28;20052;-55
2021/10/18 03:48:15;;;;;;;34.58;20.88;;;9.30;99.90;;;;;;5074369;28;20039;-56
2021/10/18 03:50:42;;;;;;;29.55;20.95;;;9.30;99.90;;;;;;5073828;28;20040;-55
2021/10/18 03:53:07;;;;;;;24.52;19.15;;;9.30;99.90;;;;;;5073992;28;20032;-60
2021/10/18 03:55:33;;;;;;;32.60;20.20;;;9.30;99.90;;;;;;5074771;28;20039;-59
2021/10/18 03:57:59;;;;;;;33.95;20.75;;;9.30;99.90;;;;;;5040141;28;20048;-59
2021/10/18 04:00:25;;;;;;;31.98;20.50;;;9.30;99.90;;;;;;5074585;28;20056;-58
2021/10/18 04:02:51;;;;;;;31.75;20.48;;;9.30;99.90;;;;;;5074864;28;20040;-54
2021/10/18 04:05:17;;;;;;;25.00;19.45;;;9.30;99.90;;;;;;5057297;28;20511;-60
2021/10/18 04:07:47;;;;;;;52.63;21.88;;;9.20;99.90;;;;;;5074890;28;20100;-54
2021/10/18 04:10:13;;;;;;;43.85;22.35;;;9.10;99.90;;;;;;5076444;28;20032;-55
2021/10/18 04:12:38;;;;;;;42.28;23.00;;;9.10;99.90;;;;;;5043797;28;20071;-57
2021/10/18 04:15:05;;;;;;;28.35;21.95;;;9.10;99.90;;;;;;5094458;28;20932;-58
2021/10/18 04:17:31;;;;;;;27.02;20.50;;;9.10;99.90;;;;;;5093539;28;20040;-58
2021/10/18 04:19:57;;;;;;;42.88;20.80;;;9.10;99.90;;;;;;5077014;28;20036;-60
2021/10/18 04:22:23;;;;;;;121.70;23.98;;;9.00;99.90;;;;;;5093822;28;20040;-57
2021/10/18 04:24:49;;;;;;;137.60;23.50;;;9.00;99.90;;;;;;5095167;28;20509;-54
2021/10/18 04:27:15;;;;;;;136.23;25.10;;;9.00;99.90;;;;;;5092925;28;20115;-57
2021/10/18 04:29:41;;;;;;;148.75;25.30;;;9.00;99.90;;;;;;5094029;28;20495;-56
2021/10/18 04:32:08;;;;;;;184.10;27.63;;;9.10;99.90;;;;;;5094547;28;20100;-57
2021/10/18 04:34:33;;;;;;;114.82;26.17;;;9.00;99.90;;;;;;5094537;28;20036;-57
2021/10/18 04:36:59;;;;;;;53.65;24.98;;;9.10;99.90;;;;;;5072647;28;20051;-56
2021/10/18 04:39:25;;;;;;;78.07;22.85;;;9.10;99.90;;;;;;5042770;28;20096;-55
2021/10/18 04:41:51;;;;;;;99.85;22.35;;;9.00;99.90;;;;;;5023362;28;20040;-55
2021/10/18 04:44:17;;;;;;;92.38;24.17;;;9.00;99.90;;;;;;5073648;28;20036;-54
2021/10/18 04:46:42;;;;;;;136.00;23.88;;;9.00;99.90;;;;;;5075107;28;20078;-54
2021/10/18 04:49:08;;;;;;;187.43;26.67;;;9.00;99.90;;;;;;5075241;28;20082;-58
2021/10/18 04:51:34;;;;;;;125.20;25.10;;;9.00;99.90;;;;;;5075058;28;20113;-58
2021/10/18 04:54:00;;;;;;;30.88;19.35;;;9.00;99.90;;;;;;5056719;28;20051;-55
2021/10/18 04:56:26;;;;;;;34.92;20.42;;;9.00;99.90;;;;;;5049371;28;20045;-57
2021/10/18 04:58:53;;;;;;;38.88;19.20;;;9.00;99.90;;;;;;5016037;28;20072;-57
2021/10/18 05:01:19;;;;;;;50.08;21.10;;;9.10;99.90;;;;;;5033427;28;20113;-57
2021/10/18 05:03:45;;;;;;;41.83;21.50;;;9.10;99.90;;;;;;5031446;28;20030;-57
2021/10/18 05:06:10;;;;;;;202.30;26.55;;;9.10;99.90;;;;;;4998222;28;20068;-59
2021/10/18 05:08:36;;;;;;;50.80;20.90;;;9.20;99.90;;;;;;5030363;28;20128;-55
2021/10/18 05:11:02;;;;;;;37.80;20.35;;;9.20;99.90;;;;;;5032603;28;20030;-60
2021/10/18 05:13:28;;;;;;;73.88;23.33;;;9.20;99.90;;;;;;5032093;28;20021;-55
2021/10/18 05:15:54;;;;;;;73.95;22.65;;;9.30;99.90;;;;;;5032802;28;20067;-58
2021/10/18 05:18:20;;;;;;;53.78;21.27;;;9.20;99.90;;;;;;5036220;28;20060;-54
2021/10/18 05:20:47;;;;;;;66.82;20.27;;;9.10;99.90;;;;;;5015318;28;20116;-60
2021/10/18 05:23:13;;;;;;;57.25;20.00;;;9.10;99.90;;;;;;5028108;28;20057;-56
2021/10/18 05:25:38;;;;;;;30.83;21.20;;;9.10;99.90;;;;;;5031375;28;20063;-58
2021/10/18 05:28:05;;;;;;;29.75;19.70;;;9.20;99.90;;;;;;5032537;28;20038;-55
2021/10/18 05:30:31;;;;;;;29.80;19.65;;;9.20;99.90;;;;;;5029822;28;20026;-54
2021/10/18 05:32:58;;;;;;;28.83;18.48;;;9.30;99.90;;;;;;5036110;28;20021;-55
2021/10/18 05:35:25;;;;;;;29.70;20.27;;;9.40;99.90;;;;;;5073234;28;20028;-55
2021/10/18 05:37:52;;;;;;;40.58;26.30;;;9.60;99.90;;;;;;5072863;28;20028;-55
2021/10/18 05:40:19;;;;;;;46.53;29.73;;;10.10;99.90;;;;;;5073026;28;20459;-55
2021/10/18 05:42:46;;;;;;;114.50;60.05;;;10.40;99.90;;;;;;5077897;28;20029;-57
2021/10/18 05:45:12;;;;;;;110.20;83.88;;;10.50;99.90;;;;;;5073496;28;20055;-54
2021/10/18 05:47:51;;;;;;;64.68;49.83;;;11.00;99.90;;;;;;5072846;28;20073;-58
2021/10/18 05:50:17;;;;;;;45.25;30.77;;;10.90;99.90;;;;;;5070474;28;20108;-54
2021/10/18 05:52:43;;;;;;;52.80;36.40;;;10.70;99.90;;;;;;5053786;28;20040;-52
2021/10/18 05:55:09;;;;;;;54.13;34.92;;;10.60;99.90;;;;;;5072606;28;20024;-55
2021/10/18 05:57:50;;;;;;;42.05;30.60;;;10.40;99.90;;;;;;5086617;28;20056;-55
2021/10/18 06:00:17;;;;;;;32.28;24.05;;;10.40;99.90;;;;;;5072556;28;20365;-57
2021/10/18 06:02:42;;;;;;;28.58;21.75;;;10.50;99.90;;;;;;5072674;28;20418;-56
2021/10/18 06:05:08;;;;;;;36.05;23.17;;;10.60;99.90;;;;;;5071520;28;20044;-55
2021/10/18 06:07:34;;;;;;;30.52;21.35;;;10.60;99.90;;;;;;5072499;28;20051;-58
2021/10/18 06:10:00;;;;;;;57.88;38.42;;;10.70;99.90;;;;;;5070831;28;20897;-57
2021/10/18 06:12:26;;;;;;;29.23;20.25;;;10.60;99.90;;;;;;5071706;28;20460;-54
2021/10/18 06:14:51;;;;;;;28.10;19.95;;;10.60;99.90;;;;;;5072197;28;20021;-55
2021/10/18 06:17:17;;;;;;;32.15;20.15;;;10.70;99.90;;;;;;5072115;28;20024;-54
2021/10/18 06:19:43;;;;;;;25.45;18.40;;;10.80;99.90;;;;;;5069705;28;20041;-54
2021/10/18 06:22:09;;;;;;;28.45;18.00;;;10.80;99.90;;;;;;5071713;28;20135;-57
2021/10/18 06:24:34;;;;;;;30.50;18.73;;;10.80;99.90;;;;;;5101872;28;20071;-56
2021/10/18 06:27:00;;;;;;;28.35;18.30;;;10.80;99.90;;;;;;5072474;28;20031;-59
2021/10/18 06:29:27;;;;;;;35.28;18.55;;;11.00;99.90;;;;;;5070538;28;20465;-57
2021/10/18 06:31:53;;;;;;;36.42;17.65;;;11.10;99.90;;;;;;5071080;28;20148;-57
2021/10/18 06:34:18;;;;;;;35.65;17.95;;;11.10;99.90;;;;;;5071546;28;20064;-58
2021/10/18 06:36:44;;;;;;;28.10;16.05;;;11.20;99.90;;;;;;5069397;28;20147;-56
2021/10/18 06:39:10;;;;;;;32.75;17.60;;;11.10;99.90;;;;;;5050515;28;20515;-55
2021/10/18 06:41:36;;;;;;;26.23;15.95;;;11.20;99.90;;;;;;5068204;28;20039;-57
2021/10/18 06:44:01;;;;;;;28.80;17.35;;;11.20;99.90;;;;;;5069718;28;20067;-58
2021/10/18 06:46:27;;;;;;;30.95;16.23;;;11.30;99.90;;;;;;5062977;28;20028;-57
2021/10/18 06:48:53;;;;;;;25.65;17.58;;;11.40;99.90;;;;;;5070174;28;20040;-55
2021/10/18 06:51:19;;;;;;;24.80;16.75;;;11.50;99.90;;;;;;5050598;28;20127;-55
2021/10/18 06:53:49;;;;;;;22.85;17.10;;;11.50;99.90;;;;;;5070231;28;20515;-56
2021/10/18 06:56:15;;;;;;;29.35;16.85;;;11.60;99.90;;;;;;5067168;28;20033;-54
2021/10/18 06:58:41;;;;;;;29.63;20.00;;;11.70;99.90;;;;;;5070492;28;20047;-58
2021/10/18 07:01:07;;;;;;;23.98;17.10;;;11.90;99.90;;;;;;5072049;28;20032;-61
2021/10/18 07:03:32;;;;;;;33.25;20.83;;;12.20;99.90;;;;;;5072611;28;20036;-56
2021/10/18 07:06:01;;;;;;;31.90;20.55;;;12.50;99.90;;;;;;5071310;28;20127;-59
2021/10/18 07:08:26;;;;;;;25.73;17.83;;;12.80;99.90;;;;;;5069690;28;20059;-57
2021/10/18 07:10:52;;;;;;;27.80;17.25;;;13.90;99.90;;;;;;5070595;28;20029;-58
2021/10/18 07:13:18;;;;;;;24.50;17.00;;;16.00;99.90;;;;;;5070926;28;20112;-60
2021/10/18 07:15:44;;;;;;;21.38;14.88;;;17.80;99.90;;;;;;5070757;28;20412;-57
2021/10/18 07:18:10;;;;;;;19.95;14.55;;;19.50;99.90;;;;;;5070965;28;20043;-56
2021/10/18 07:20:36;;;;;;;19.85;13.90;;;21.30;99.90;;;;;;5071992;28;20023;-54
2021/10/18 07:23:07;;;;;;;16.65;13.48;;;21.80;99.90;;;;;;5070862;28;20032;-54
2021/10/18 07:25:33;;;;;;;16.77;13.57;;;23.20;99.60;;;;;;5070882;28;20066;-54
2021/10/18 07:27:58;;;;;;;20.67;14.05;;;23.00;95.00;;;;;;5053553;28;20025;-53
2021/10/18 07:30:25;;;;;;;18.40;15.02;;;22.00;94.90;;;;;;5071350;28;20078;-54
2021/10/18 07:32:51;;;;;;;15.55;13.57;;;20.80;95.40;;;;;;5070632;28;20028;-54
2021/10/18 07:35:20;;;;;;;16.92;14.82;;;20.80;96.50;;;;;;5073092;28;20027;-54
2021/10/18 07:37:54;;;;;;;21.05;15.35;;;20.90;96.50;;;;;;5070076;28;20028;-54
2021/10/18 07:40:19;;;;;;;15.57;13.15;;;21.80;96.00;;;;;;5068174;28;20465;-53
2021/10/18 07:42:45;;;;;;;21.05;15.10;;;21.60;95.20;;;;;;5066858;28;20044;-54
2021/10/18 07:45:11;;;;;;;22.73;17.35;;;22.00;95.10;;;;;;5068738;28;20036;-52
2021/10/18 07:47:37;;;;;;;17.13;14.95;;;22.00;95.60;;;;;;5070351;28;20065;-55
2021/10/18 07:50:04;;;;;;;19.95;16.83;;;21.30;94.70;;;;;;5071274;28;20024;-56
2021/10/18 07:52:30;;;;;;;19.77;15.25;;;21.20;96.60;;;;;;5048350;28;20040;-55
2021/10/18 07:55:02;;;;;;;23.55;16.58;;;21.30;95.50;;;;;;5068597;28;20391;-55
2021/10/18 07:57:29;;;;;;;22.95;17.42;;;21.90;95.60;;;;;;5066673;28;20052;-52
2021/10/18 07:59:54;;;;;;;25.65;18.40;;;22.10;94.70;;;;;;5067189;28;20396;-53
2021/10/18 08:02:20;;;;;;;26.13;17.75;;;22.30;94.50;;;;;;5069916;28;20042;-57
2021/10/18 08:04:46;;;;;;;21.30;16.83;;;22.80;94.10;;;;;;5065955;28;20087;-56
2021/10/18 08:07:12;;;;;;;30.45;21.40;;;23.20;94.80;;;;;;5068246;28;20123;-53
2021/10/18 08:09:38;;;;;;;31.38;20.55;;;;;;;;;;5071127;28;20468;-57
2021/10/18 08:12:04;;;;;;;32.35;20.52;;;24.60;92.60;;;;;;5071277;28;20059;-53
2021/10/18 08:14:30;;;;;;;42.13;18.15;;;;;;;;;;5052231;28;20068;-58
2021/10/18 08:16:55;;;;;;;40.03;20.52;;;24.80;91.40;;;;;;5069597;28;20089;-55
2021/10/18 08:19:21;;;;;;;38.60;19.70;;;24.50;91.70;;;;;;5032681;28;20040;-57
2021/10/18 08:21:47;;;;;;;32.63;19.52;;;23.30;92.90;;;;;;5070420;28;20036;-53
2021/10/18 08:24:13;;;;;;;34.67;21.10;;;23.40;93.10;;;;;;5072356;28;20078;-57
2021/10/18 08:26:38;;;;;;;29.30;18.42;;;23.80;92.40;;;;;;5051514;28;20044;-54
2021/10/18 08:29:05;;;;;;;34.97;18.95;;;22.90;93.50;;;;;;5034489;28;20492;-55
2021/10/18 08:31:30;;;;;;;28.55;18.85;;;24.00;91.90;;;;;;5038202;28;20036;-52
2021/10/18 08:33:56;;;;;;;25.90;17.30;;;;;;;;;;5021665;28;20029;-54
2021/10/18 08:36:22;;;;;;;24.73;18.08;;;25.40;90.90;;;;;;5064037;28;20560;-52
2021/10/18 08:38:52;;;;;;;30.38;20.20;;;;;;;;;;5057176;28;20075;-54
2021/10/18 08:41:26;;;;;;;24.60;18.67;;;;;;;;;;5072085;28;20048;-52
2021/10/18 08:46:23;;;;;;;25.23;22.23;;;;;;;;;;5072761;28;20175;-55
2021/10/18 08:48:54;;;;;;;22.25;17.35;;;26.70;84.90;;;;;;5070896;28;20033;-51
2021/10/18 08:51:21;;;;;;;22.83;17.15;;;;;;;;;;5069071;28;20072;-54
2021/10/18 08:53:47;;;;;;;19.80;15.98;;;25.50;86.30;;;;;;5068948;28;20025;-52
2021/10/18 08:56:13;;;;;;;24.48;19.50;;;26.20;86.10;;;;;;5054894;28;20059;-55
2021/10/18 08:58:39;;;;;;;23.25;19.08;;;25.90;86.60;;;;;;5055083;28;20461;-54
2021/10/18 09:01:05;;;;;;;29.55;20.60;;;25.40;85.80;;;;;;5074471;28;20021;-55
2021/10/18 09:03:33;;;;;;;20.52;17.15;;;;;;;;;;5071349;28;20039;-55
2021/10/18 09:06:16;;;;;;;22.95;17.08;;;25.80;86.10;;;;;;5073482;28;20056;-53
2021/10/18 09:08:50;;;;;;;24.27;16.63;;;24.80;86.10;;;;;;5084666;28;20102;-52
2021/10/18 09:11:21;;;;;;;22.52;17.23;;;;;;;;;;5079138;28;20557;-55
2021/10/18 09:14:05;;;;;;;21.00;16.53;;;25.80;83.50;;;;;;5074085;28;20536;-54
2021/10/18 09:16:33;;;;;;;22.85;16.42;;;26.60;81.50;;;;;;5073902;28;20117;-54
2021/10/18 09:19:11;;;;;;;29.77;16.58;;;25.90;82.70;;;;;;5074175;28;20068;-53
2021/10/18 09:21:41;;;;;;;24.10;15.32;;;26.70;80.70;;;;;;5074205;28;20025;-54
2021/10/18 09:24:08;;;;;;;23.30;15.93;;;26.40;81.50;;;;;;5074298;28;20063;-53
2021/10/18 09:26:35;;;;;;;20.67;15.30;;;26.60;80.30;;;;;;5055160;28;20043;-55
2021/10/18 09:29:06;;;;;;;26.38;15.98;;;26.50;79.90;;;;;;5073102;28;20035;-54
2021/10/18 09:31:32;;;;;;;26.40;19.45;;;26.20;81.30;;;;;;5070091;28;20025;-54
2021/10/18 09:34:29;;;;;;;26.38;16.05;;;26.90;80.90;;;;;;5065636;28;20032;-55
2021/10/18 09:37:08;;;;;;;19.73;15.00;;;26.20;80.00;;;;;;5029886;28;20037;-54
2021/10/18 09:39:34;;;;;;;27.40;17.02;;;;;;;;;;5031109;28;20045;-55
2021/10/18 09:42:03;;;;;;;23.88;16.20;;;27.50;78.70;;;;;;5030122;28;20037;-55
2021/10/18 10:53:20;;;;;;;12.50;10.95;;;;;;;;;;4986053;28;20049;-55
2021/10/18 10:55:47;;;;;;;18.45;14.80;;;28.20;68.00;;;;;;4990942;28;20061;-55
2021/10/18 10:58:40;;;;;;;24.17;19.45;;;28.30;68.60;;;;;;5035432;28;20040;-57
2021/10/18 11:01:06;;;;;;;18.92;14.77;;;;;;;;;;5064722;28;20028;-55
2021/10/18 11:03:39;;;;;;;13.18;11.88;;;27.30;67.70;;;;;;5070001;28;20028;-57
2021/10/18 11:06:11;;;;;;;18.10;16.15;;;27.50;69.20;;;;;;5071067;28;20068;-57
2021/10/18 11:08:41;;;;;;;16.08;14.43;;;27.90;68.40;;;;;;5067553;28;20036;-58
2021/10/18 11:11:11;;;;;;;14.13;12.65;;;28.00;69.20;;;;;;5062648;28;20040;-58
2021/10/18 11:13:50;;;;;;;15.43;11.60;;;27.90;68.90;;;;;;5071848;28;20166;-59
2021/10/18 11:16:38;;;;;;;78.55;43.17;;;28.00;68.60;;;;;;5069411;28;20060;-57
2021/10/18 11:19:04;;;;;;;20.55;13.90;;;28.10;67.70;;;;;;5071279;28;20044;-58
2021/10/18 11:21:35;;;;;;;10.55;9.40;;;28.30;67.50;;;;;;5072027;28;20032;-57
2021/10/18 11:24:06;;;;;;;16.80;11.52;;;;;;;;;;5072974;28;20429;-64
2021/10/18 11:26:36;;;;;;;18.42;13.05;;;26.20;71.70;;;;;;5072114;28;20028;-64
2021/10/18 11:29:05;;;;;;;12.10;10.90;;;26.30;68.20;;;;;;5073217;28;20843;-65
2021/10/18 11:31:41;;;;;;;12.43;10.25;;;;;;;;;;5072265;28;20052;-66
2021/10/18 11:34:07;;;;;;;12.07;10.93;;;26.40;69.40;;;;;;5072600;28;20424;-65
2021/10/18 11:36:35;;;;;;;15.80;13.32;;;;;;;;;;5071710;28;20033;-66
2021/10/18 11:39:18;;;;;;;13.07;10.60;;;24.80;71.30;;;;;;5071385;28;20048;-65
2021/10/18 11:41:59;;;;;;;10.20;9.23;;;25.40;69.80;;;;;;5072063;28;20035;-64
2021/10/18 11:44:48;;;;;;;11.02;9.95;;;25.60;71.40;;;;;;5071402;28;20031;-65
2021/10/18 11:47:35;;;;;;;13.02;10.52;;;24.90;70.70;;;;;;5069763;28;20025;-65
2021/10/18 11:50:14;;;;;;;13.15;10.40;;;25.30;72.10;;;;;;5071113;28;20081;-64
2021/10/18 11:52:46;;;;;;;39.53;31.00;;;25.10;70.20;;;;;;5071797;28;20438;-64
2021/10/18 11:55:15;;;;;;;14.52;11.23;;;25.40;70.70;;;;;;5068629;28;20020;-64
2021/10/18 11:57:43;;;;;;;12.73;10.25;;;25.40;71.20;;;;;;5053214;28;20059;-64
2021/10/18 12:00:21;;;;;;;14.43;10.60;;;25.30;70.30;;;;;;5076151;28;20032;-64
2021/10/18 12:02:47;;;;;;;14.10;10.45;;;24.80;71.30;;;;;;5049673;28;20484;-64
2021/10/18 12:05:17;;;;;;;12.07;10.45;;;24.30;74.10;;;;;;5073605;28;20070;-64
2021/10/18 12:07:48;;;;;;;12.15;9.98;;;24.20;72.10;;;;;;5074629;28;20456;-63
2021/10/18 12:10:26;;;;;;;15.85;10.55;;;24.10;71.50;;;;;;5038833;28;20032;-64
2021/10/18 12:13:15;;;;;;;12.02;10.18;;;24.80;70.20;;;;;;5075114;28;20028;-63
2021/10/18 12:15:47;;;;;;;13.93;10.05;;;25.30;69.90;;;;;;5076213;28;20107;-64
2021/10/18 12:18:15;;;;;;;11.15;9.07;;;24.70;69.70;;;;;;5075904;28;20039;-63
2021/10/18 12:20:50;;;;;;;16.15;12.27;;;24.20;70.10;;;;;;5075811;28;20028;-63
2021/10/18 12:23:25;;;;;;;13.80;9.73;;;24.40;70.10;;;;;;5075080;28;20459;-63
2021/10/18 12:26:17;;;;;;;13.40;9.15;;;24.30;70.20;;;;;;5073854;28;20028;-64
2021/10/18 12:28:51;;;;;;;10.55;9.45;;;24.80;71.20;;;;;;5071903;28;20040;-64
2021/10/18 12:31:44;;;;;;;18.45;11.00;;;25.10;71.10;;;;;;5074102;28;20047;-64
2021/10/18 12:34:22;;;;;;;11.07;8.93;;;25.10;71.00;;;;;;5069243;28;20036;-63
2021/10/18 12:37:01;;;;;;;10.15;8.18;;;24.80;70.70;;;;;;5070890;28;20039;-63
2021/10/18 12:39:31;;;;;;;12.40;7.78;;;25.00;71.00;;;;;;5070020;28;20036;-64
2021/10/18 12:41:57;;;;;;;12.65;7.22;;;24.90;70.10;;;;;;5071820;28;20428;-64
2021/10/18 12:44:44;;;;;;;9.82;7.25;;;24.60;69.40;;;;;;5074729;28;20078;-63
2021/10/18 12:47:24;;;;;;;19.98;15.13;;;23.90;70.30;;;;;;5073236;28;20016;-63
2021/10/18 12:50:00;;;;;;;12.07;9.30;;;24.00;70.20;;;;;;5070785;28;20040;-64
2021/10/18 12:52:28;;;;;;;12.85;8.80;;;23.80;70.70;;;;;;5064156;28;20031;-64
2021/10/18 12:54:54;;;;;;;11.32;8.50;;;23.60;70.10;;;;;;5068972;28;20120;-64
2021/10/18 12:57:25;;;;;;;11.35;9.93;;;24.00;70.30;;;;;;5073528;28;20389;-64
2021/10/18 13:00:09;;;;;;;11.85;9.43;;;24.00;70.00;;;;;;5075515;28;20106;-63
2021/10/18 13:02:37;;;;;;;8.13;7.32;;;24.10;71.80;;;;;;5059951;28;20471;-63
2021/10/18 13:05:24;;;;;;;9.93;7.57;;;24.00;68.80;;;;;;5074675;28;20047;-63
2021/10/18 13:08:00;;;;;;;7.95;6.90;;;23.90;69.20;;;;;;5067804;28;20037;-63
2021/10/18 13:10:34;;;;;;;9.70;7.90;;;23.10;70.00;;;;;;5072146;28;20021;-63
2021/10/18 13:13:03;;;;;;;9.13;8.05;;;22.90;71.10;;;;;;5073713;28;20029;-63
2021/10/18 13:15:29;;;;;;;10.35;7.30;;;22.80;72.20;;;;;;5055904;28;20143;-63
2021/10/18 13:17:56;;;;;;;10.02;7.38;;;22.20;71.20;;;;;;5090224;28;20551;-62
2021/10/18 13:20:23;;;;;;;10.90;8.15;;;22.50;72.50;;;;;;5074337;28;20060;-63
2021/10/18 13:22:52;;;;;;;9.38;7.22;;;22.70;72.50;;;;;;5068229;28;20028;-63
2021/10/18 13:25:18;;;;;;;9.73;8.48;;;22.70;71.70;;;;;;5071926;28;20028;-63
2021/10/18 13:27:44;;;;;;;11.30;8.52;;;23.10;72.60;;;;;;5070862;28;20028;-63
2021/10/18 13:30:11;;;;;;;11.85;8.00;;;22.90;70.60;;;;;;5068474;28;20123;-63
2021/10/18 13:32:39;;;;;;;9.35;8.35;;;22.50;71.60;;;;;;5043511;28;20037;-63
2021/10/18 13:35:05;;;;;;;11.05;8.48;;;22.60;72.50;;;;;;5071084;28;20017;-63
2021/10/18 13:37:32;;;;;;;20.63;16.95;;;22.70;71.90;;;;;;5035605;28;20480;-63
2021/10/18 13:39:58;;;;;;;10.98;9.13;;;22.90;71.30;;;;;;5102169;28;20396;-63
2021/10/18 13:42:24;;;;;;;11.40;9.43;;;22.80;70.50;;;;;;5069931;28;20025;-63
2021/10/18 13:44:50;;;;;;;11.27;8.52;;;22.50;72.80;;;;;;5070671;28;20036;-63
2021/10/18 13:47:16;;;;;;;11.93;8.38;;;22.80;71.20;;;;;;5070520;28;20020;-63
2021/10/18 13:49:41;;;;;;;9.13;8.02;;;23.00;72.80;;;;;;5070922;28;20090;-63
2021/10/18 13:52:07;;;;;;;8.70;7.10;;;22.50;72.50;;;;;;5074000;28;20059;-59